createdAt,value
2019-01-11T00:00:47.905Z,-8.00
2019-01-11T00:03:16.575Z,-8.00
2019-01-11T00:05:45.385Z,-8.00
2019-01-11T00:08:15.144Z,-7.90
2019-01-11T00:10:43.876Z,-7.70
2019-01-11T00:13:12.657Z,-7.60
2019-01-11T00:15:41.375Z,-7.70
2019-01-11T00:18:10.194Z,-7.70
2019-01-11T00:20:38.912Z,-7.80
2019-01-11T00:23:07.665Z,-7.90
2019-01-11T00:25:36.431Z,-7.90
2019-01-11T00:28:05.134Z,-8.00
2019-01-11T00:30:33.766Z,-7.90
2019-01-11T00:33:02.426Z,-7.90
2019-01-11T00:35:31.091Z,-7.70
2019-01-11T00:37:59.844Z,-7.80
2019-01-11T00:40:29.336Z,-7.70
2019-01-11T00:42:57.936Z,-7.60
2019-01-11T00:45:26.769Z,-7.60
2019-01-11T00:47:55.558Z,-7.50
2019-01-11T00:50:24.321Z,-7.60
2019-01-11T00:52:53.064Z,-7.70
2019-01-11T00:55:22.031Z,-7.70
2019-01-11T00:57:50.703Z,-7.80
2019-01-11T01:00:24.107Z,-7.70
2019-01-11T01:02:54.056Z,-7.70
2019-01-11T01:05:22.745Z,-7.60
2019-01-11T01:07:51.472Z,-7.60
2019-01-11T01:10:23.184Z,-7.70
2019-01-11T01:12:51.937Z,-7.70
2019-01-11T01:15:21.325Z,-7.80
2019-01-11T01:17:50.212Z,-7.80
2019-01-11T01:20:18.986Z,-7.80
2019-01-11T01:22:48.040Z,-7.70
2019-01-11T01:25:16.849Z,-7.70
2019-01-11T01:27:46.647Z,-7.80
2019-01-11T01:30:19.767Z,-7.80
2019-01-11T01:32:48.503Z,-7.80
2019-01-11T01:35:17.134Z,-7.80
2019-01-11T01:37:45.877Z,-7.80
2019-01-11T01:40:16.064Z,-7.80
2019-01-11T01:42:44.637Z,-7.90
2019-01-11T01:45:15.283Z,-7.90
2019-01-11T01:47:44.809Z,-7.90
2019-01-11T01:50:13.293Z,-7.90
2019-01-11T01:52:43.516Z,-7.90
2019-01-11T01:55:14.425Z,-7.90
2019-01-11T01:57:43.064Z,-7.90
2019-01-11T02:00:15.244Z,-7.90
2019-01-11T02:02:43.860Z,-7.90
2019-01-11T02:05:12.341Z,-8.00
2019-01-11T02:07:40.867Z,-8.00
2019-01-11T02:10:11.805Z,-7.90
2019-01-11T02:12:40.451Z,-7.80
2019-01-11T02:15:10.359Z,-7.90
2019-01-11T02:17:38.942Z,-7.90
2019-01-11T02:20:10.810Z,-8.00
2019-01-11T02:22:39.307Z,-8.00
2019-01-11T02:25:08.431Z,-8.00
2019-01-11T02:27:36.989Z,-8.00
2019-01-11T02:30:08.815Z,-8.20
2019-01-11T02:32:37.335Z,-8.20
2019-01-11T02:35:06.211Z,-8.20
2019-01-11T02:37:34.737Z,-8.20
2019-01-11T02:40:04.965Z,-8.20
2019-01-11T02:42:33.547Z,-8.10
2019-01-11T02:45:02.212Z,-8.10
2019-01-11T02:47:30.824Z,-8.10
2019-01-11T02:49:59.575Z,-8.00
2019-01-11T02:52:28.280Z,-8.00
2019-01-11T02:54:56.825Z,-8.00
2019-01-11T02:57:25.489Z,-8.00
2019-01-11T02:59:54.114Z,-8.10
2019-01-11T03:02:22.710Z,-8.00
2019-01-11T03:04:51.597Z,-8.00
2019-01-11T03:07:20.110Z,-8.00
2019-01-11T03:09:50.351Z,-8.10
2019-01-11T03:12:18.999Z,-8.10
2019-01-11T03:14:47.533Z,-8.10
2019-01-11T03:17:16.164Z,-8.10
2019-01-11T03:19:47.843Z,-8.20
2019-01-11T03:22:14.839Z,-8.10
2019-01-11T03:24:43.363Z,-8.10
2019-01-11T03:27:11.986Z,-8.20
2019-01-11T03:29:40.458Z,-8.20
2019-01-11T03:32:09.128Z,-8.20
2019-01-11T03:34:39.397Z,-8.20
2019-01-11T03:37:07.987Z,-8.30
2019-01-11T03:39:36.646Z,-8.30
2019-01-11T03:42:06.731Z,-8.30
2019-01-11T03:44:35.255Z,-8.40
2019-01-11T03:47:03.764Z,-8.30
2019-01-11T03:49:32.481Z,-8.40
2019-01-11T03:52:00.941Z,-8.40
2019-01-11T03:54:29.438Z,-8.50
2019-01-11T03:56:57.914Z,-8.40
2019-01-11T03:59:26.517Z,-8.30
2019-01-11T04:01:54.985Z,-8.40
2019-01-11T04:04:23.506Z,-8.50
2019-01-11T04:06:53.203Z,-8.50
2019-01-11T04:09:21.821Z,-8.50
2019-01-11T04:11:50.199Z,-8.50
2019-01-11T04:14:18.782Z,-8.50
2019-01-11T04:16:48.447Z,-8.50
2019-01-11T04:19:18.044Z,-8.50
2019-01-11T04:21:48.224Z,-8.50
2019-01-11T04:24:16.765Z,-8.50
2019-01-11T04:26:45.408Z,-8.50
2019-01-11T04:29:14.135Z,-8.50
2019-01-11T04:31:42.610Z,-8.40
2019-01-11T04:34:11.033Z,-8.40
2019-01-11T04:36:39.647Z,-8.50
2019-01-11T04:39:09.117Z,-8.50
2019-01-11T04:41:37.878Z,-8.60
2019-01-11T04:44:06.387Z,-8.60
2019-01-11T04:46:34.880Z,-8.50
2019-01-11T04:49:03.497Z,-8.50
2019-01-11T04:51:32.153Z,-8.50
2019-01-11T04:54:01.334Z,-8.50
2019-01-11T04:56:29.985Z,-8.50
2019-01-11T04:58:58.601Z,-8.50
2019-01-11T05:01:27.107Z,-8.50
2019-01-11T05:03:57.225Z,-8.50
2019-01-11T05:06:25.850Z,-8.50
2019-01-11T05:08:54.245Z,-8.50
2019-01-11T05:11:23.761Z,-8.50
2019-01-11T05:13:52.803Z,-8.50
2019-01-11T05:16:21.365Z,-8.50
2019-01-11T05:18:50.164Z,-8.50
2019-01-11T05:21:18.541Z,-8.50
2019-01-11T05:23:47.245Z,-8.50
2019-01-11T05:26:18.196Z,-8.50
2019-01-11T05:28:46.707Z,-8.50
2019-01-11T05:31:15.330Z,-8.50
2019-01-11T05:33:43.853Z,-8.50
2019-01-11T05:36:12.363Z,-8.60
2019-01-11T05:38:40.782Z,-8.50
2019-01-11T05:41:10.239Z,-8.60
2019-01-11T05:43:38.918Z,-8.70
2019-01-11T05:46:07.495Z,-8.80
2019-01-11T05:48:37.007Z,-8.70
2019-01-11T05:51:14.247Z,-8.70
2019-01-11T05:53:42.842Z,-8.80
2019-01-11T05:56:11.518Z,-8.70
2019-01-11T05:58:41.895Z,-8.70
2019-01-11T06:01:10.579Z,-8.70
2019-01-11T06:03:39.064Z,-8.70
2019-01-11T06:06:07.824Z,-8.70
2019-01-11T06:08:36.357Z,-8.60
2019-01-11T06:11:04.963Z,-8.60
2019-01-11T06:13:33.514Z,-8.70
2019-01-11T06:16:02.204Z,-8.70
2019-01-11T06:18:30.729Z,-8.70
2019-01-11T06:20:59.159Z,-8.60
2019-01-11T06:23:27.617Z,-8.60
2019-01-11T06:25:56.098Z,-8.50
2019-01-11T06:28:24.813Z,-8.60
2019-01-11T06:30:54.983Z,-8.70
2019-01-11T06:33:25.579Z,-8.60
2019-01-11T06:35:57.847Z,-8.60
2019-01-11T06:38:26.325Z,-8.60
2019-01-11T06:40:55.217Z,-8.60
2019-01-11T06:43:23.908Z,-8.70
2019-01-11T06:45:53.823Z,-8.70
2019-01-11T06:48:24.279Z,-8.70
2019-01-11T06:50:52.829Z,-8.70
2019-01-11T06:53:25.443Z,-8.70
2019-01-11T06:55:54.223Z,-8.70
2019-01-11T06:58:22.899Z,-8.70
2019-01-11T07:00:51.682Z,-8.70
2019-01-11T07:03:21.741Z,-8.60
2019-01-11T07:05:50.789Z,-8.50
2019-01-11T07:08:19.638Z,-8.50
2019-01-11T07:10:48.653Z,-8.50
2019-01-11T07:13:17.439Z,-8.50
2019-01-11T07:16:13.826Z,-8.40
2019-01-11T07:18:54.101Z,-8.40
2019-01-11T07:21:24.729Z,-8.40
2019-01-11T07:23:53.831Z,-8.30
2019-01-11T07:26:22.555Z,-8.30
2019-01-11T07:28:51.683Z,-8.30
2019-01-11T07:31:40.334Z,-8.40
2019-01-11T07:37:22.595Z,-8.50
2019-01-11T07:39:58.530Z,-8.40
2019-01-11T07:42:27.283Z,-8.30
2019-01-11T07:44:59.159Z,-8.30
2019-01-11T07:47:29.578Z,-8.20
2019-01-11T07:49:58.227Z,-8.30
2019-01-11T07:52:27.368Z,-8.40
2019-01-11T07:55:02.615Z,-8.40
2019-01-11T07:57:31.364Z,-8.30
2019-01-11T08:00:00.261Z,-8.20
2019-01-11T08:02:30.330Z,-8.10
2019-01-11T08:08:15.450Z,-8.10
2019-01-11T08:10:42.776Z,-8.10
2019-01-11T08:13:15.198Z,-8.10
2019-01-11T08:15:47.435Z,-8.20
2019-01-11T08:18:32.298Z,-8.20
2019-01-11T08:21:07.118Z,-8.20
2019-01-11T08:23:40.422Z,-8.40
2019-01-11T08:26:37.220Z,-8.40
2019-01-11T08:29:06.404Z,-8.20
2019-01-11T08:31:35.104Z,-8.10
2019-01-11T08:34:03.993Z,-8.00
2019-01-11T08:36:37.818Z,-8.20
2019-01-11T08:39:08.058Z,-8.20
2019-01-11T08:41:38.466Z,-8.20
2019-01-11T08:44:08.595Z,-8.10
2019-01-11T08:46:38.180Z,-8.00
2019-01-11T08:49:14.856Z,-8.10
2019-01-11T08:51:46.835Z,-8.10
2019-01-11T08:54:19.618Z,-8.10
2019-01-11T08:56:54.330Z,-8.10
2019-01-11T08:59:23.050Z,-8.00
2019-01-11T09:02:02.570Z,-7.70
2019-01-11T09:04:42.054Z,-7.40
2019-01-11T09:07:09.971Z,-7.50
2019-01-11T09:32:42.622Z,-7.80
2019-01-11T09:35:14.675Z,-7.70
2019-01-11T09:37:43.734Z,-7.70
2019-01-11T09:47:08.006Z,-7.70
2019-01-11T09:49:36.398Z,-7.70
2019-01-11T10:01:12.006Z,-8.00
2019-01-11T10:03:45.503Z,-7.90
2019-01-11T10:06:14.894Z,-7.70
2019-01-11T10:08:47.582Z,-7.60
2019-01-11T10:11:21.976Z,-7.60
2019-01-11T10:26:29.136Z,-7.30
2019-01-11T10:29:03.978Z,-7.30
2019-01-11T10:31:38.816Z,-7.30
2019-01-11T10:34:24.313Z,-7.30
2019-01-11T10:36:53.258Z,-7.20
2019-01-11T10:39:22.162Z,-7.00
2019-01-11T10:41:51.005Z,-7.00
2019-01-11T10:44:21.218Z,-6.90
2019-01-11T10:46:50.056Z,-6.90
2019-01-11T10:49:18.994Z,-6.90
2019-01-11T10:52:05.752Z,-6.90
2019-01-11T11:01:21.521Z,-6.70
2019-01-11T11:04:09.224Z,-6.60
2019-01-11T11:09:45.259Z,-6.60
2019-01-11T11:12:14.483Z,-6.50
2019-01-11T11:20:43.739Z,-6.30
2019-01-11T11:26:20.111Z,-6.20
2019-01-11T11:28:49.090Z,-6.10
2019-01-11T11:31:17.601Z,-6.00
2019-01-11T11:33:46.298Z,-5.80
2019-01-11T11:36:15.190Z,-5.70
2019-01-11T11:38:44.387Z,-5.70
2019-01-11T11:41:13.468Z,-5.80
2019-01-11T11:43:44.408Z,-5.70
2019-01-11T11:46:17.670Z,-5.60
2019-01-11T11:48:48.858Z,-5.40
2019-01-11T11:51:24.682Z,-5.30
2019-01-11T11:53:53.471Z,-5.10
2019-01-11T11:56:22.588Z,-5.00
2019-01-11T11:58:53.191Z,-4.90
2019-01-11T12:01:22.479Z,-5.00
2019-01-11T12:03:51.548Z,-5.00
2019-01-11T12:06:24.878Z,-5.00
2019-01-11T12:08:54.700Z,-5.00
2019-01-11T12:11:25.800Z,-4.90
2019-01-11T12:14:14.106Z,-4.90
2019-01-11T12:16:48.342Z,-4.90
2019-01-11T12:19:16.848Z,-4.80
2019-01-11T12:21:47.910Z,-4.70
2019-01-11T12:24:24.006Z,-4.80
2019-01-11T12:26:53.302Z,-4.80
2019-01-11T12:29:22.086Z,-4.70
2019-01-11T12:31:51.191Z,-4.70
2019-01-11T12:34:21.099Z,-4.60
2019-01-11T12:36:50.219Z,-4.40
2019-01-11T12:42:48.474Z,-4.00
2019-01-11T12:45:18.963Z,-3.90
2019-01-11T12:47:48.040Z,-4.00
2019-01-11T12:50:19.458Z,-4.30
2019-01-11T12:52:48.801Z,-4.20
2019-01-11T12:55:17.946Z,-4.20
2019-01-11T13:00:50.992Z,-4.40
2019-01-11T13:03:33.167Z,-4.50
2019-01-11T13:06:02.254Z,-4.60
2019-01-11T13:11:20.999Z,-4.40
2019-01-11T13:14:10.414Z,-4.40
2019-01-11T13:24:01.305Z,-4.10
2019-01-11T13:26:54.231Z,-3.90
2019-01-11T13:29:30.241Z,-3.80
2019-01-11T13:31:58.852Z,-3.80
2019-01-11T13:34:45.590Z,-4.00
2019-01-11T13:37:17.501Z,-4.20
2019-01-11T13:39:46.645Z,-4.40
2019-01-11T13:42:15.847Z,-4.60
2019-01-11T13:44:44.715Z,-4.80
2019-01-11T13:47:29.918Z,-4.90
2019-01-11T13:49:58.924Z,-4.90
2019-01-11T13:52:28.433Z,-5.00
2019-01-11T13:54:57.943Z,-4.90
2019-01-11T13:57:28.712Z,-4.90
2019-01-11T13:59:58.590Z,-4.90
2019-01-11T14:02:43.190Z,-4.80
2019-01-11T14:05:15.349Z,-4.90
2019-01-11T14:07:58.417Z,-4.90
2019-01-11T14:10:37.275Z,-4.90
2019-01-11T14:16:39.899Z,-5.00
2019-01-11T14:19:13.681Z,-5.10
2019-01-11T14:21:42.765Z,-5.10
2019-01-11T14:24:11.731Z,-5.10
2019-01-11T14:26:40.857Z,-5.10
2019-01-11T14:29:10.264Z,-5.10
2019-01-11T14:31:38.949Z,-5.10
2019-01-11T14:34:08.520Z,-5.10
2019-01-11T14:36:37.717Z,-5.20
2019-01-11T14:39:08.536Z,-5.20
2019-01-11T14:41:37.821Z,-5.20
2019-01-11T14:54:10.727Z,-5.30
2019-01-11T14:56:44.322Z,-5.30
2019-01-11T14:59:13.955Z,-5.30
2019-01-11T15:04:42.318Z,-5.30
2019-01-11T15:07:30.130Z,-5.30
2019-01-11T15:09:59.390Z,-5.20
2019-01-11T15:26:55.898Z,-5.10
2019-01-11T15:29:47.964Z,-5.00
2019-01-11T16:08:40.016Z,-4.70
2019-01-11T16:11:50.211Z,-4.70
2019-01-11T16:18:11.973Z,-4.60
2019-01-11T16:20:51.933Z,-4.60
2019-01-11T16:23:27.735Z,-4.60
2019-01-11T16:26:05.471Z,-4.50
2019-01-11T16:28:40.501Z,-4.40
2019-01-11T16:31:09.486Z,-4.40
2019-01-11T16:36:55.944Z,-4.20
2019-01-11T16:39:24.911Z,-4.10
2019-01-11T16:41:55.710Z,-4.10
2019-01-11T16:44:24.651Z,-4.00
2019-01-11T16:47:10.190Z,-4.00
2019-01-11T16:49:42.440Z,-4.00
2019-01-11T16:52:15.329Z,-4.00
2019-01-11T16:54:46.363Z,-3.90
2019-01-11T16:57:15.291Z,-3.90
2019-01-11T17:00:33.842Z,-3.80
2019-01-11T17:03:10.001Z,-3.80
2019-01-11T17:06:04.637Z,-3.80
2019-01-11T17:09:18.900Z,-3.70
2019-01-11T17:14:23.844Z,-3.60
2019-01-11T17:17:10.774Z,-3.60
2019-01-11T17:22:25.135Z,-3.50
2019-01-11T17:27:51.079Z,-3.40
2019-01-11T17:30:19.797Z,-3.30
2019-01-11T17:32:48.378Z,-3.30
2019-01-11T17:35:17.201Z,-3.20
2019-01-11T17:37:45.868Z,-3.20
2019-01-11T17:40:14.674Z,-3.10
2019-01-11T17:42:43.189Z,-3.20
2019-01-11T17:45:12.603Z,-3.20
2019-01-11T17:47:41.174Z,-3.20
2019-01-11T17:50:14.047Z,-3.30
2019-01-11T17:52:43.127Z,-3.30
2019-01-11T17:55:11.754Z,-3.20
2019-01-11T17:57:40.485Z,-3.20
2019-01-11T18:00:14.568Z,-3.10
2019-01-11T18:02:43.172Z,-3.00
2019-01-11T18:05:13.412Z,-2.90
2019-01-11T18:07:41.985Z,-2.90
2019-01-11T18:10:11.872Z,-2.80
2019-01-11T18:12:42.412Z,-2.80
2019-01-11T18:15:19.628Z,-2.70
2019-01-11T18:17:48.217Z,-2.70
2019-01-11T18:20:25.009Z,-2.60
2019-01-11T18:22:53.417Z,-2.60
2019-01-11T18:25:21.975Z,-2.50
2019-01-11T18:27:50.638Z,-2.50
2019-01-11T18:30:19.596Z,-2.50
2019-01-11T18:32:48.302Z,-2.50
2019-01-11T18:35:17.064Z,-2.50
2019-01-11T18:37:45.635Z,-2.50
2019-01-11T18:40:20.427Z,-2.40
2019-01-11T18:42:49.072Z,-2.50
2019-01-11T18:45:17.603Z,-2.50
2019-01-11T18:47:46.042Z,-2.50
2019-01-11T18:50:17.204Z,-2.50
2019-01-11T18:52:45.702Z,-2.50
2019-01-11T18:55:14.568Z,-2.50
2019-01-11T18:57:43.208Z,-2.50
2019-01-11T19:00:20.692Z,-2.50
2019-01-11T19:02:49.290Z,-2.50
2019-01-11T19:05:18.421Z,-2.50
2019-01-11T19:07:47.050Z,-2.40
2019-01-11T19:10:17.463Z,-2.40
2019-01-11T19:12:46.159Z,-2.40
2019-01-11T19:15:17.858Z,-2.40
2019-01-11T19:17:46.590Z,-2.40
2019-01-11T19:20:17.684Z,-2.40
2019-01-11T19:22:49.484Z,-2.40
2019-01-11T19:25:19.545Z,-2.30
2019-01-11T19:27:48.265Z,-2.30
2019-01-11T19:30:19.190Z,-2.30
2019-01-11T19:32:48.006Z,-2.30
2019-01-11T19:35:16.709Z,-2.20
2019-01-11T19:37:45.650Z,-2.20
2019-01-11T19:40:15.887Z,-2.10
2019-01-11T19:42:44.557Z,-2.10
2019-01-11T19:45:14.953Z,-2.10
2019-01-11T19:47:43.940Z,-2.10
2019-01-11T19:50:18.236Z,-2.10
2019-01-11T19:52:47.141Z,-2.00
2019-01-11T19:55:15.937Z,-2.00
2019-01-11T19:57:44.718Z,-2.00
2019-01-11T20:00:16.376Z,-1.90
2019-01-11T20:02:44.962Z,-1.80
2019-01-11T20:05:13.710Z,-1.80
2019-01-11T20:07:42.699Z,-1.80
2019-01-11T20:10:14.519Z,-1.80
2019-01-11T20:12:43.334Z,-1.80
2019-01-11T20:15:12.098Z,-1.80
2019-01-11T20:17:40.599Z,-1.80
2019-01-11T20:20:13.446Z,-1.80
2019-01-11T20:22:42.252Z,-1.80
2019-01-11T20:25:18.884Z,-1.70
2019-01-11T20:27:47.683Z,-1.70
2019-01-11T20:30:19.048Z,-1.70
2019-01-11T20:32:47.834Z,-1.70
2019-01-11T20:35:16.704Z,-1.70
2019-01-11T20:37:45.665Z,-1.70
2019-01-11T20:40:16.152Z,-1.70
2019-01-11T20:42:44.817Z,-1.70
2019-01-11T20:45:15.368Z,-1.70
2019-01-11T20:47:44.007Z,-1.70
2019-01-11T20:50:17.641Z,-1.70
2019-01-11T20:52:46.502Z,-1.60
2019-01-11T20:55:14.988Z,-1.70
2019-01-11T20:57:43.664Z,-1.60
2019-01-11T21:00:20.968Z,-1.60
2019-01-11T21:02:49.594Z,-1.70
2019-01-11T21:05:18.148Z,-1.60
2019-01-11T21:07:46.735Z,-1.60
2019-01-11T21:10:15.420Z,-1.60
2019-01-11T21:12:43.963Z,-1.60
2019-01-11T21:15:15.606Z,-1.60
2019-01-11T21:17:44.183Z,-1.50
2019-01-11T21:20:15.373Z,-1.50
2019-01-11T21:22:44.381Z,-1.40
2019-01-11T21:25:14.889Z,-1.50
2019-01-11T21:27:43.526Z,-1.50
2019-01-11T21:30:15.179Z,-1.50
2019-01-11T21:32:43.713Z,-1.60
2019-01-11T21:35:12.415Z,-1.60
2019-01-11T21:37:40.846Z,-1.50
2019-01-11T21:40:13.216Z,-1.50
2019-01-11T21:42:41.889Z,-1.50
2019-01-11T21:45:11.378Z,-1.50
2019-01-11T21:47:40.003Z,-1.50
2019-01-11T21:50:11.768Z,-1.40
2019-01-11T21:52:40.465Z,-1.40
2019-01-11T21:55:09.378Z,-1.40
2019-01-11T21:57:39.118Z,-1.30
2019-01-11T22:00:29.038Z,-1.30
2019-01-11T22:02:57.749Z,-1.30
2019-01-11T22:05:26.481Z,-1.20
2019-01-11T22:07:54.910Z,-1.20
2019-01-11T22:10:23.869Z,-1.20
2019-01-11T22:12:52.445Z,-1.10
2019-01-11T22:15:21.005Z,-1.10
2019-01-11T22:17:50.644Z,-1.10
2019-01-11T22:20:19.515Z,-1.00
2019-01-11T22:22:48.006Z,-0.90
2019-01-11T22:25:17.989Z,-0.90
2019-01-11T22:27:46.721Z,-0.90
2019-01-11T22:30:20.594Z,-0.80
2019-01-11T22:32:49.073Z,-0.80
2019-01-11T22:35:18.530Z,-0.70
2019-01-11T22:37:47.308Z,-0.70
2019-01-11T22:40:19.685Z,-0.60
2019-01-11T22:42:49.628Z,-0.50
2019-01-11T22:45:18.473Z,-0.50
2019-01-11T22:47:47.075Z,-0.40
2019-01-11T22:50:16.384Z,-0.40
2019-01-11T22:52:44.957Z,-0.40
2019-01-11T22:55:15.553Z,-0.30
2019-01-11T22:57:44.188Z,-0.20
2019-01-11T23:00:26.905Z,-0.20
2019-01-11T23:02:58.604Z,-0.20
2019-01-11T23:05:27.163Z,-0.10
2019-01-11T23:07:56.654Z,-0.10
2019-01-11T23:10:43.436Z,-0.10
2019-01-11T23:13:12.116Z,-0.10
2019-01-11T23:15:40.826Z,-0.10
2019-01-11T23:18:11.137Z,0.00
2019-01-11T23:20:39.852Z,0.00
2019-01-11T23:23:08.490Z,0.10
2019-01-11T23:25:37.050Z,0.20
2019-01-11T23:28:08.379Z,0.20
2019-01-11T23:30:37.025Z,0.20
2019-01-11T23:33:06.732Z,0.30
2019-01-11T23:35:35.466Z,0.30
2019-01-11T23:38:04.166Z,0.30
2019-01-11T23:40:32.742Z,0.30
2019-01-11T23:43:01.593Z,0.30
2019-01-11T23:45:30.221Z,0.40
2019-01-11T23:47:58.900Z,0.40
2019-01-11T23:50:27.593Z,0.50
2019-01-11T23:52:56.174Z,0.50
2019-01-11T23:55:24.819Z,0.50
2019-01-11T23:57:53.383Z,0.60
